Time;durP1;ratioP1;P1;durP2;ratioP2;P2;SDS_P1;SDS_P2;PMS_P1;PMS_P2;Temp;Humidity;BMP_temperature;BMP_pressure;BME280_temperature;BME280_humidity;BME280_pressure;Samples;Min_cycle;Max_cycle;Signal;HPM_P1;HPM_P2
2022/09/26 00:01:39;;;;;;;10.53;3.23;;;9.50;89.90;;;;;;4994477;28;20407;-87
2022/09/26 00:04:17;;;;;;;8.47;3.77;;;9.60;89.80;;;;;;4994611;28;20280;-87
2022/09/26 00:06:42;;;;;;;8.37;4.17;;;9.70;89.60;;;;;;4994088;28;20158;-88
2022/09/26 00:09:08;;;;;;;13.50;4.60;;;9.70;89.60;;;;;;4993735;28;20178;-88
2022/09/26 00:11:34;;;;;;;4.80;3.10;;;9.70;89.80;;;;;;4996626;28;20246;-88
2022/09/26 00:14:04;;;;;;;11.97;4.67;;;9.70;89.70;;;;;;4997606;28;20260;-88
2022/09/26 00:16:30;;;;;;;9.13;4.17;;;9.70;89.80;;;;;;4997767;28;20173;-89
2022/09/26 00:18:57;;;;;;;8.20;3.37;;;9.60;89.80;;;;;;4997244;28;20186;-88
2022/09/26 00:21:24;;;;;;;5.87;3.07;;;9.60;89.70;;;;;;4997153;28;20237;-88
2022/09/26 00:23:50;;;;;;;10.43;4.70;;;9.60;89.90;;;;;;4998939;28;20698;-88
2022/09/26 00:26:18;;;;;;;6.53;3.30;;;9.50;90.00;;;;;;4997263;28;20209;-87
2022/09/26 00:28:44;;;;;;;12.13;3.43;;;9.50;90.20;;;;;;4996799;28;20193;-88
2022/09/26 00:31:26;;;;;;;6.70;3.07;;;9.50;90.40;;;;;;4996827;28;20916;-87
2022/09/26 00:33:52;;;;;;;6.30;3.07;;;9.50;90.50;;;;;;4996969;28;20173;-87
2022/09/26 00:36:18;;;;;;;10.50;3.40;;;9.50;90.60;;;;;;4996917;28;20179;-89
2022/09/26 00:38:44;;;;;;;10.93;3.40;;;9.50;90.80;;;;;;4996947;28;20229;-90
2022/09/26 00:41:11;;;;;;;4.93;3.27;;;9.50;90.80;;;;;;4996780;28;20233;-90
2022/09/26 00:43:41;;;;;;;16.17;3.90;;;9.50;90.90;;;;;;4996797;28;20162;-90
2022/09/26 00:46:39;;;;;;;9.17;3.10;;;9.40;90.90;;;;;;4996830;28;20213;-90
2022/09/26 00:49:24;;;;;;;13.60;4.80;;;9.40;90.90;;;;;;4996813;28;20257;-89
2022/09/26 00:52:09;;;;;;;10.53;4.20;;;9.50;90.90;;;;;;4996796;28;20206;-89
2022/09/26 00:54:37;;;;;;;7.10;3.23;;;9.50;90.80;;;;;;4996978;28;20538;-90
2022/09/26 00:57:09;;;;;;;8.63;3.93;;;9.50;90.60;;;;;;4996973;28;20174;-90
2022/09/26 00:59:39;;;;;;;12.97;3.67;;;9.60;90.40;;;;;;4995597;28;20178;-90
2022/09/26 01:02:05;;;;;;;10.37;4.73;;;9.70;90.40;;;;;;4996395;28;20750;-89
2022/09/26 01:04:33;;;;;;;8.40;4.70;;;9.70;90.40;;;;;;4996766;28;20198;-89
2022/09/26 01:07:02;;;;;;;8.00;4.30;;;9.70;90.50;;;;;;5011624;28;20178;-90
2022/09/26 01:09:29;;;;;;;9.53;4.93;;;9.60;90.60;;;;;;4996282;28;20170;-90
2022/09/26 01:11:55;;;;;;;15.13;5.40;;;9.50;90.70;;;;;;4996485;28;20280;-89
2022/09/26 01:14:21;;;;;;;12.43;5.00;;;9.50;90.90;;;;;;4996487;28;20541;-89
2022/09/26 01:16:50;;;;;;;17.10;4.73;;;9.50;90.90;;;;;;4995125;28;20272;-90
2022/09/26 01:19:42;;;;;;;14.00;5.80;;;9.50;90.90;;;;;;4994914;28;20709;-89
2022/09/26 01:22:37;;;;;;;6.90;4.73;;;9.60;91.10;;;;;;4994735;28;20723;-89
2022/09/26 01:25:24;;;;;;;14.17;5.67;;;9.50;91.10;;;;;;4995951;28;20174;-89
2022/09/26 01:28:11;;;;;;;10.70;5.17;;;9.50;91.30;;;;;;4995977;28;20165;-89
2022/09/26 01:31:13;;;;;;;10.87;5.10;;;9.50;91.30;;;;;;4996165;28;20208;-89
2022/09/26 01:34:03;;;;;;;11.07;5.90;;;9.50;91.20;;;;;;4994729;28;20177;-89
2022/09/26 01:36:46;;;;;;;9.00;4.77;;;9.50;91.20;;;;;;4996196;28;20174;-89
2022/09/26 01:39:44;;;;;;;10.77;4.97;;;9.50;91.20;;;;;;4996249;28;20161;-90
2022/09/26 01:42:45;;;;;;;10.10;5.07;;;9.50;91.30;;;;;;4996054;28;20288;-90
2022/09/26 01:45:18;;;;;;;11.37;5.87;;;9.50;91.30;;;;;;4982792;28;20178;-90
2022/09/26 01:48:02;;;;;;;11.00;5.70;;;9.50;91.40;;;;;;4996106;28;20158;-90
2022/09/26 01:50:37;;;;;;;11.13;5.70;;;9.50;91.50;;;;;;4995532;28;20694;-91
2022/09/26 01:53:14;;;;;;;12.23;5.83;;;9.40;91.60;;;;;;4995723;28;20197;-90
2022/09/26 01:55:44;;;;;;;10.90;6.40;;;9.50;91.60;;;;;;4995782;28;20216;-90
2022/09/26 01:58:13;;;;;;;12.90;5.90;;;9.50;91.50;;;;;;4996045;28;20204;-91
2022/09/26 02:00:41;;;;;;;13.27;6.07;;;9.50;91.50;;;;;;4995770;28;20185;-90
2022/09/26 02:03:12;;;;;;;8.33;5.20;;;9.50;91.50;;;;;;4994203;28;20213;-90
2022/09/26 02:05:45;;;;;;;13.93;5.87;;;9.50;91.50;;;;;;4995805;28;20177;-89
2022/09/26 02:08:23;;;;;;;10.53;5.87;;;9.50;91.40;;;;;;4995910;28;20241;-90
2022/09/26 02:11:11;;;;;;;15.70;5.50;;;9.60;91.50;;;;;;4995378;28;20154;-90
2022/09/26 02:13:46;;;;;;;11.33;5.70;;;9.60;91.30;;;;;;4995208;28;20771;-90
2022/09/26 02:16:30;;;;;;;10.60;6.03;;;9.60;91.20;;;;;;4995457;28;20236;-89
2022/09/26 02:19:26;;;;;;;10.63;6.17;;;9.60;91.40;;;;;;4993924;28;20659;-89
2022/09/26 02:21:52;;;;;;;12.37;5.30;;;9.60;91.40;;;;;;4978421;28;20361;-90
2022/09/26 02:24:19;;;;;;;7.83;5.40;;;9.60;91.60;;;;;;4995134;28;20178;-90
2022/09/26 02:26:44;;;;;;;10.53;5.33;;;9.50;91.60;;;;;;4993938;28;20264;-90
2022/09/26 02:29:14;;;;;;;7.17;5.70;;;9.50;91.60;;;;;;4994959;28;20589;-90
2022/09/26 02:31:49;;;;;;;8.13;5.37;;;9.60;91.60;;;;;;4993505;28;20202;-90
2022/09/26 02:34:14;;;;;;;7.03;5.00;;;9.60;91.60;;;;;;4994223;28;20154;-89
2022/09/26 02:36:40;;;;;;;8.07;5.00;;;9.60;91.60;;;;;;4993596;28;20184;-90
2022/09/26 02:39:06;;;;;;;9.97;4.70;;;9.60;91.50;;;;;;4994829;28;20278;-90
2022/09/26 02:41:46;;;;;;;10.13;5.40;;;9.70;91.40;;;;;;4994650;28;20201;-90
2022/09/26 02:44:29;;;;;;;12.70;5.03;;;9.70;91.30;;;;;;4993614;28;20170;-90
2022/09/26 02:47:21;;;;;;;11.07;5.63;;;9.70;91.20;;;;;;4994889;28;20163;-89
2022/09/26 02:49:52;;;;;;;7.10;4.83;;;9.70;91.10;;;;;;4994823;28;20161;-90
2022/09/26 02:52:33;;;;;;;8.63;4.87;;;9.70;91.10;;;;;;4994686;28;20202;-90
2022/09/26 02:55:08;;;;;;;9.03;4.93;;;9.70;91.10;;;;;;4994590;28;20165;-90
2022/09/26 02:58:05;;;;;;;6.70;5.00;;;9.70;91.00;;;;;;4994752;28;20164;-90
2022/09/26 03:00:59;;;;;;;7.70;5.20;;;9.80;90.90;;;;;;4993660;28;20260;-90
2022/09/26 03:03:36;;;;;;;7.27;4.73;;;9.80;90.90;;;;;;4994494;28;20270;-89
2022/09/26 03:06:05;;;;;;;5.80;4.53;;;9.80;91.00;;;;;;4994506;28;20204;-90
2022/09/26 03:08:37;;;;;;;6.93;5.00;;;9.80;91.10;;;;;;4993175;28;20213;-90
2022/09/26 03:11:05;;;;;;;6.83;5.50;;;9.80;91.00;;;;;;4994363;28;20158;-90
2022/09/26 03:13:37;;;;;;;15.17;5.90;;;9.80;91.00;;;;;;4994336;28;20174;-90
2022/09/26 03:16:04;;;;;;;27.57;5.70;;;9.80;91.10;;;;;;4994294;28;20247;-90
2022/09/26 03:19:04;;;;;;;9.67;4.90;;;9.80;91.10;;;;;;4994558;28;20174;-90
2022/09/26 03:21:31;;;;;;;12.50;5.53;;;9.80;91.10;;;;;;4972637;28;20213;-90
2022/09/26 03:23:56;;;;;;;10.57;4.50;;;9.80;91.10;;;;;;4994625;28;20205;-90
2022/09/26 03:26:24;;;;;;;9.27;4.67;;;9.90;91.00;;;;;;4993267;28;20531;-90
2022/09/26 03:28:51;;;;;;;7.40;4.50;;;9.90;91.00;;;;;;4994389;28;20174;-89
2022/09/26 03:31:20;;;;;;;13.53;4.93;;;9.80;90.90;;;;;;4993018;28;20194;-90
2022/09/26 03:33:46;;;;;;;8.93;5.10;;;9.80;91.00;;;;;;4993272;28;20178;-90
2022/09/26 03:36:12;;;;;;;7.43;4.43;;;9.90;91.00;;;;;;4994335;28;20578;-90
2022/09/26 03:38:38;;;;;;;8.40;4.77;;;9.90;91.00;;;;;;4993097;28;20224;-90
2022/09/26 03:41:04;;;;;;;9.47;4.97;;;9.90;90.90;;;;;;4994066;28;20269;-90
2022/09/26 03:43:30;;;;;;;7.37;4.57;;;9.90;91.00;;;;;;4993035;28;20228;-90
2022/09/26 03:45:56;;;;;;;9.73;5.27;;;9.90;90.90;;;;;;4996317;28;20636;-90
2022/09/26 03:48:21;;;;;;;10.93;5.30;;;9.90;90.90;;;;;;4998227;28;20198;-90
2022/09/26 03:50:47;;;;;;;6.50;5.27;;;9.90;90.80;;;;;;4998301;28;20260;-90
2022/09/26 03:53:12;;;;;;;10.77;5.83;;;9.90;90.70;;;;;;4998034;28;20201;-91
2022/09/26 03:55:38;;;;;;;11.10;5.43;;;9.90;90.90;;;;;;4997996;28;20174;-90
2022/09/26 03:58:04;;;;;;;7.20;5.00;;;9.90;90.90;;;;;;4996615;28;20189;-91
2022/09/26 04:00:30;;;;;;;10.77;5.17;;;9.90;91.00;;;;;;4997981;28;20189;-91
2022/09/26 04:02:58;;;;;;;9.77;4.83;;;9.90;91.10;;;;;;4997862;28;20594;-91
2022/09/26 04:05:24;;;;;;;6.90;4.33;;;9.90;90.80;;;;;;4997881;28;20171;-90
2022/09/26 04:07:49;;;;;;;7.43;5.43;;;10.00;90.90;;;;;;4997927;28;20170;-90
2022/09/26 04:10:15;;;;;;;5.93;4.50;;;10.00;90.80;;;;;;4997910;28;20648;-90
2022/09/26 04:12:43;;;;;;;10.80;3.83;;;10.00;90.70;;;;;;4996682;28;20292;-90
2022/09/26 04:15:09;;;;;;;11.07;5.00;;;10.00;90.80;;;;;;4997793;28;20287;-90
2022/09/26 04:17:34;;;;;;;10.23;6.10;;;10.00;90.70;;;;;;4998072;28;20646;-91
2022/09/26 04:20:00;;;;;;;7.27;5.47;;;10.00;90.50;;;;;;4998096;28;20209;-90
2022/09/26 04:22:26;;;;;;;7.17;5.53;;;10.00;90.30;;;;;;4997702;28;20206;-90
2022/09/26 04:24:52;;;;;;;8.17;4.43;;;10.00;90.50;;;;;;4996466;28;20170;-90
2022/09/26 04:27:18;;;;;;;9.37;5.33;;;10.00;90.50;;;;;;4997555;28;20197;-90
2022/09/26 04:29:44;;;;;;;7.73;4.60;;;10.00;90.60;;;;;;4996368;28;20582;-90
2022/09/26 04:32:11;;;;;;;8.50;4.77;;;10.00;90.50;;;;;;4997605;28;20657;-91
2022/09/26 04:34:38;;;;;;;6.50;4.97;;;10.10;90.20;;;;;;4996307;28;20185;-90
2022/09/26 04:37:04;;;;;;;11.80;4.73;;;10.10;90.20;;;;;;4997611;28;20166;-90
2022/09/26 04:39:30;;;;;;;9.80;5.10;;;10.10;90.20;;;;;;4996321;28;20185;-90
2022/09/26 04:41:56;;;;;;;8.23;5.43;;;10.10;90.30;;;;;;4996224;28;20296;-90
2022/09/26 04:44:21;;;;;;;9.20;5.20;;;10.10;90.20;;;;;;4997347;28;20170;-90
2022/09/26 04:46:47;;;;;;;6.70;4.90;;;10.10;90.10;;;;;;4996138;28;20182;-90
2022/09/26 04:49:12;;;;;;;9.67;4.60;;;10.10;90.10;;;;;;4996208;28;20263;-90
2022/09/26 04:51:38;;;;;;;9.53;5.47;;;10.10;90.10;;;;;;4995864;28;20249;-91
2022/09/26 04:54:04;;;;;;;7.63;4.90;;;10.10;90.10;;;;;;4996957;28;20206;-90
2022/09/26 04:56:29;;;;;;;6.90;4.53;;;10.10;90.10;;;;;;4996552;28;20174;-90
2022/09/26 04:58:57;;;;;;;7.17;4.53;;;10.10;90.00;;;;;;4997233;28;20174;-90
2022/09/26 05:01:23;;;;;;;9.73;4.30;;;10.20;90.00;;;;;;4995688;28;20297;-90
2022/09/26 05:03:49;;;;;;;8.73;4.80;;;10.20;89.90;;;;;;4997029;28;20253;-91
2022/09/26 05:06:16;;;;;;;8.23;4.47;;;10.20;89.90;;;;;;4997079;28;20274;-90
2022/09/26 05:08:46;;;;;;;7.90;5.10;;;10.20;89.90;;;;;;4996649;28;20636;-90
2022/09/26 05:11:13;;;;;;;8.27;5.00;;;10.10;90.00;;;;;;4996401;28;20214;-90
2022/09/26 05:13:39;;;;;;;8.27;4.33;;;10.20;90.00;;;;;;4995442;28;20196;-90
2022/09/26 05:16:07;;;;;;;7.57;4.37;;;10.20;90.00;;;;;;4996901;28;20637;-90
2022/09/26 05:18:33;;;;;;;10.20;5.90;;;10.10;89.90;;;;;;4996447;28;20166;-91
2022/09/26 05:21:00;;;;;;;11.37;5.30;;;10.20;89.90;;;;;;4996415;28;20639;-90
2022/09/26 05:26:37;;;;;;;8.33;4.30;;;10.20;90.00;;;;;;4997005;28;20163;-90
2022/09/26 05:29:03;;;;;;;6.93;4.20;;;10.20;90.00;;;;;;4996577;28;20158;-90
2022/09/26 05:31:31;;;;;;;8.57;4.87;;;10.30;89.80;;;;;;4996566;28;20240;-91
2022/09/26 05:33:57;;;;;;;9.77;4.83;;;10.30;89.80;;;;;;4996665;28;20178;-91
2022/09/26 05:36:26;;;;;;;7.17;4.10;;;10.30;89.70;;;;;;4996585;28;20637;-91
2022/09/26 05:38:52;;;;;;;5.47;4.83;;;10.30;89.60;;;;;;4996362;28;20181;-90
2022/09/26 05:41:19;;;;;;;7.67;3.77;;;10.30;89.60;;;;;;4996095;28;20307;-90
2022/09/26 05:43:46;;;;;;;10.47;4.77;;;10.30;89.60;;;;;;4996481;28;20256;-91
2022/09/26 05:46:12;;;;;;;8.67;4.90;;;10.30;89.60;;;;;;4996468;28;20254;-91
2022/09/26 05:48:38;;;;;;;5.50;4.63;;;10.30;89.50;;;;;;4994997;28;20178;-91
2022/09/26 05:51:12;;;;;;;6.27;4.70;;;10.30;89.40;;;;;;4996064;28;20197;-91
2022/09/26 05:53:38;;;;;;;9.53;5.37;;;10.30;89.60;;;;;;4996166;28;20512;-91
2022/09/26 05:56:05;;;;;;;10.67;5.93;;;10.30;89.70;;;;;;4996299;28;20579;-91
2022/09/26 05:58:32;;;;;;;11.40;5.87;;;10.30;89.90;;;;;;4995064;28;20170;-93
2022/09/26 06:01:06;;;;;;;9.37;5.80;;;10.30;90.20;;;;;;4997083;28;20186;-91
2022/09/26 06:03:35;;;;;;;10.10;6.27;;;10.30;90.50;;;;;;4999351;28;20185;-91
2022/09/26 06:06:03;;;;;;;10.50;5.80;;;10.20;90.70;;;;;;4998516;28;20210;-91
2022/09/26 06:08:28;;;;;;;9.70;5.87;;;10.30;90.80;;;;;;4994916;28;20697;-91
2022/09/26 06:11:08;;;;;;;10.93;6.57;;;10.30;91.00;;;;;;4994925;28;20205;-90
2022/09/26 06:13:34;;;;;;;9.73;6.17;;;10.20;91.10;;;;;;4996322;28;20209;-90
2022/09/26 06:16:05;;;;;;;7.67;5.47;;;10.20;91.30;;;;;;4995758;28;20174;-90
2022/09/26 06:18:34;;;;;;;12.43;6.70;;;10.20;91.40;;;;;;4996066;28;20181;-90
2022/09/26 06:21:05;;;;;;;12.23;6.00;;;10.20;91.50;;;;;;4994553;28;20268;-90
2022/09/26 06:23:32;;;;;;;11.67;6.23;;;10.20;91.50;;;;;;4995762;28;20302;-90
2022/09/26 06:25:58;;;;;;;13.83;6.03;;;10.30;91.50;;;;;;4995669;28;20179;-90
2022/09/26 06:28:25;;;;;;;9.17;6.30;;;10.30;91.50;;;;;;4995648;28;20248;-91
2022/09/26 06:30:51;;;;;;;9.67;6.77;;;10.20;91.40;;;;;;4995601;28;20169;-89
2022/09/26 06:33:17;;;;;;;6.73;6.03;;;10.30;91.50;;;;;;4995651;28;20563;-89
2022/09/26 06:35:42;;;;;;;9.90;7.10;;;10.30;91.30;;;;;;4996242;28;20181;-89
2022/09/26 06:38:08;;;;;;;7.73;6.77;;;10.30;91.30;;;;;;4995461;28;20178;-90
2022/09/26 06:40:34;;;;;;;10.27;7.03;;;10.30;91.20;;;;;;4994602;28;20217;-91
2022/09/26 06:43:00;;;;;;;9.67;6.47;;;10.40;91.30;;;;;;4993206;28;20258;-91
2022/09/26 06:45:25;;;;;;;8.80;5.87;;;10.40;91.00;;;;;;4994873;28;20229;-90
2022/09/26 06:47:52;;;;;;;6.10;5.50;;;10.40;90.90;;;;;;4994441;28;20622;-91
2022/09/26 06:50:17;;;;;;;9.10;5.40;;;10.50;90.80;;;;;;4995157;28;20189;-90
2022/09/26 06:52:43;;;;;;;10.23;6.10;;;10.50;90.80;;;;;;4995385;28;20204;-91
2022/09/26 06:55:09;;;;;;;9.17;5.17;;;10.50;90.80;;;;;;4995566;28;20262;-89
2022/09/26 06:57:38;;;;;;;8.07;6.40;;;10.50;90.80;;;;;;4994240;28;20188;-90
2022/09/26 07:00:05;;;;;;;12.17;6.27;;;10.50;90.70;;;;;;4995348;28;20170;-90
2022/09/26 07:02:31;;;;;;;9.17;5.77;;;10.50;90.60;;;;;;4995240;28;20280;-90
2022/09/26 07:04:56;;;;;;;9.63;6.70;;;10.60;90.60;;;;;;4993573;28;20205;-90
2022/09/26 07:07:22;;;;;;;4.90;4.43;;;10.60;90.50;;;;;;4998275;28;20170;-90
2022/09/26 07:09:47;;;;;;;7.23;5.40;;;10.60;90.30;;;;;;4995962;28;20185;-87
2022/09/26 07:12:14;;;;;;;6.67;5.20;;;10.60;90.60;;;;;;4993373;28;20210;-90
2022/09/26 07:14:40;;;;;;;8.93;5.33;;;10.60;90.50;;;;;;4995437;28;20237;-89
2022/09/26 07:17:05;;;;;;;10.13;4.87;;;10.70;90.60;;;;;;5000239;28;20186;-90
2022/09/26 07:19:31;;;;;;;5.57;5.07;;;10.70;90.70;;;;;;4995451;28;20185;-91
2022/09/26 07:21:56;;;;;;;8.83;5.37;;;10.70;90.60;;;;;;4994187;28;20268;-91
2022/09/26 07:24:22;;;;;;;7.13;5.33;;;10.80;90.80;;;;;;4995163;28;20592;-90
2022/09/26 07:26:47;;;;;;;5.67;4.50;;;10.80;90.80;;;;;;4996136;28;20174;-91
2022/09/26 07:29:13;;;;;;;9.87;4.63;;;10.80;90.70;;;;;;4994749;28;20178;-91
2022/09/26 07:31:38;;;;;;;11.50;4.70;;;10.90;90.40;;;;;;4994298;28;20206;-91
2022/09/26 07:34:04;;;;;;;7.00;5.20;;;10.90;90.20;;;;;;4993149;28;20324;-88
2022/09/26 07:36:30;;;;;;;6.97;4.30;;;11.00;90.40;;;;;;4994020;28;20174;-88
2022/09/26 07:38:56;;;;;;;9.43;6.30;;;11.00;90.20;;;;;;4994251;28;20256;-90
2022/09/26 07:41:22;;;;;;;8.03;6.13;;;11.00;90.30;;;;;;4993723;28;20675;-90
2022/09/26 07:43:47;;;;;;;9.23;5.40;;;11.10;90.30;;;;;;4992648;28;20285;-89
2022/09/26 07:51:41;;;;;;;12.53;6.10;;;11.10;90.10;;;;;;4994300;28;20331;-90
2022/09/26 07:54:07;;;;;;;11.23;6.10;;;11.20;90.20;;;;;;4996075;28;20186;-91
2022/09/26 07:56:33;;;;;;;9.40;5.00;;;11.20;90.30;;;;;;4993699;28;20264;-89
2022/09/26 07:59:02;;;;;;;6.83;5.97;;;11.20;90.40;;;;;;4993264;28;20185;-88
2022/09/26 08:01:28;;;;;;;6.27;5.00;;;11.20;90.20;;;;;;4997932;28;20200;-91
2022/09/26 08:03:56;;;;;;;9.00;5.27;;;11.20;89.90;;;;;;4995925;28;20175;-91
2022/09/26 08:06:22;;;;;;;8.03;4.93;;;11.20;89.90;;;;;;4995247;28;20170;-90
2022/09/26 08:08:52;;;;;;;7.67;5.50;;;11.30;89.80;;;;;;4994501;28;20173;-89
2022/09/26 08:11:19;;;;;;;12.50;6.40;;;11.30;89.40;;;;;;4995923;28;20198;-90
2022/09/26 08:13:46;;;;;;;10.60;5.73;;;11.30;89.50;;;;;;4997163;28;20224;-90
2022/09/26 08:16:18;;;;;;;7.77;5.33;;;11.40;89.60;;;;;;4998908;28;20167;-91
2022/09/26 08:18:43;;;;;;;7.63;5.53;;;11.30;89.20;;;;;;4998502;28;20204;-91
2022/09/26 08:21:09;;;;;;;10.60;6.47;;;11.30;88.80;;;;;;4999354;28;20174;-92
2022/09/26 08:23:35;;;;;;;8.17;5.60;;;11.40;88.60;;;;;;5003777;28;20201;-91
2022/09/26 08:26:05;;;;;;;8.10;6.43;;;11.40;88.90;;;;;;5002010;28;20170;-91
2022/09/26 08:28:35;;;;;;;7.20;6.27;;;11.40;88.90;;;;;;4998058;28;20194;-90
2022/09/26 08:31:01;;;;;;;17.17;5.63;;;11.40;88.70;;;;;;4995118;28;20641;-89
2022/09/26 08:33:27;;;;;;;13.20;6.90;;;11.40;88.60;;;;;;5000967;28;20679;-92
2022/09/26 08:35:52;;;;;;;14.70;7.10;;;11.40;89.00;;;;;;5007255;28;20178;-93
2022/09/26 08:38:18;;;;;;;13.87;6.77;;;11.40;89.00;;;;;;5006903;28;20193;-92
2022/09/26 08:41:33;;;;;;;7.77;5.60;;;11.40;88.90;;;;;;5007694;28;20174;-89
2022/09/26 08:44:21;;;;;;;12.90;7.50;;;11.40;89.00;;;;;;5009487;28;20186;-93
2022/09/26 08:47:01;;;;;;;6.90;4.80;;;11.40;89.60;;;;;;5005909;28;20147;-93
2022/09/26 08:49:47;;;;;;;8.50;7.17;;;11.40;89.30;;;;;;5009806;28;20178;-92
2022/09/26 08:52:59;;;;;;;7.90;7.10;;;11.40;89.50;;;;;;5015016;28;20214;-92
2022/09/26 08:55:30;;;;;;;9.20;6.87;;;11.40;89.70;;;;;;4961048;28;20227;-92
2022/09/26 08:58:03;;;;;;;13.70;7.70;;;11.40;89.30;;;;;;4963081;28;20183;-92
2022/09/26 09:00:32;;;;;;;10.33;7.73;;;11.50;89.50;;;;;;4995771;28;20186;-94
2022/09/26 09:03:09;;;;;;;11.30;6.80;;;11.50;89.60;;;;;;5019874;28;20204;-92
2022/09/26 09:05:39;;;;;;;9.30;6.13;;;11.60;89.80;;;;;;5018720;28;20182;-93
2022/09/26 09:08:20;;;;;;;11.40;8.10;;;11.50;89.10;;;;;;5019632;28;20189;-92
2022/09/26 09:11:13;;;;;;;12.70;7.23;;;11.70;89.80;;;;;;5020195;28;20190;-92
2022/09/26 09:14:16;;;;;;;8.17;6.90;;;11.70;89.10;;;;;;5019457;28;20222;-93
2022/09/26 09:17:04;;;;;;;14.60;8.60;;;11.80;89.40;;;;;;5017786;28;20174;-93
2022/09/26 09:19:42;;;;;;;6.33;5.60;;;11.90;89.10;;;;;;5017716;28;20166;-93
2022/09/26 09:22:46;;;;;;;8.80;6.27;;;12.00;88.20;;;;;;5019031;28;20265;-93
2022/09/26 09:25:42;;;;;;;8.10;5.93;;;12.00;87.70;;;;;;5018465;28;20182;-92
2022/09/26 09:28:31;;;;;;;8.53;6.23;;;12.10;87.10;;;;;;5016881;28;20220;-93
2022/09/26 09:31:10;;;;;;;10.43;6.83;;;12.20;87.20;;;;;;5018177;28;20189;-93
2022/09/26 09:33:38;;;;;;;11.40;6.77;;;12.30;87.60;;;;;;5019601;28;20237;-94
2022/09/26 09:36:15;;;;;;;10.10;6.83;;;12.40;87.00;;;;;;5018878;28;20178;-93
2022/09/26 09:38:44;;;;;;;8.97;5.53;;;12.50;86.70;;;;;;5018811;28;20205;-93
2022/09/26 09:41:15;;;;;;;8.80;6.03;;;12.60;85.40;;;;;;5017139;28;20209;-93
2022/09/26 09:43:47;;;;;;;13.33;6.73;;;12.50;85.10;;;;;;5016113;28;20202;-93
2022/09/26 09:46:30;;;;;;;7.50;5.10;;;12.80;85.60;;;;;;5018443;28;20220;-92
2022/09/26 09:49:07;;;;;;;8.83;6.07;;;12.70;83.70;;;;;;5019821;28;20166;-93
2022/09/26 09:51:48;;;;;;;11.27;5.57;;;12.70;83.50;;;;;;5018215;28;20237;-93
2022/09/26 09:54:41;;;;;;;8.63;4.90;;;12.70;83.40;;;;;;5018384;28;20224;-94
2022/09/26 09:57:19;;;;;;;7.17;3.87;;;12.50;82.70;;;;;;5016702;28;20170;-93
2022/09/26 10:00:10;;;;;;;8.00;5.17;;;12.50;82.50;;;;;;5016826;28;20257;-93
2022/09/26 10:02:42;;;;;;;6.33;3.90;;;12.60;83.60;;;;;;5016550;28;20270;-93
2022/09/26 10:05:41;;;;;;;7.07;4.53;;;12.60;83.50;;;;;;5014448;28;20166;-92
2022/09/26 10:08:31;;;;;;;9.80;5.03;;;12.50;82.70;;;;;;5015612;28;20189;-93
2022/09/26 10:11:15;;;;;;;9.07;5.90;;;12.60;83.10;;;;;;5017250;28;20231;-93
2022/09/26 10:13:43;;;;;;;6.07;5.27;;;12.70;84.20;;;;;;5018500;28;20158;-92
2022/09/26 10:16:13;;;;;;;9.10;5.20;;;12.70;83.60;;;;;;5017206;28;20189;-93
2022/09/26 10:19:05;;;;;;;12.23;7.97;;;12.80;83.70;;;;;;5016833;28;20166;-93
2022/09/26 10:21:34;;;;;;;6.37;4.80;;;12.70;83.00;;;;;;5017424;28;20182;-93
2022/09/26 10:24:02;;;;;;;7.87;4.43;;;12.80;82.60;;;;;;5014251;28;20234;-94
2022/09/26 10:26:35;;;;;;;9.97;5.53;;;12.70;82.40;;;;;;5015463;28;20186;-93
2022/09/26 10:29:06;;;;;;;6.30;4.37;;;12.80;83.20;;;;;;5013979;28;20193;-93
2022/09/26 10:31:39;;;;;;;10.43;4.93;;;12.70;82.50;;;;;;5001154;28;20573;-89
2022/09/26 10:34:29;;;;;;;9.03;5.00;;;12.60;82.80;;;;;;4998395;28;20197;-90
2022/09/26 10:36:55;;;;;;;6.07;5.30;;;12.70;83.10;;;;;;4996135;28;20154;-89
2022/09/26 10:42:21;;;;;;;10.40;5.60;;;12.80;83.20;;;;;;4996478;28;20581;-88
2022/09/26 10:44:49;;;;;;;5.40;4.90;;;12.80;83.00;;;;;;4994522;28;20244;-89
2022/09/26 10:47:17;;;;;;;11.33;6.50;;;12.80;82.60;;;;;;4996021;28;20178;-88
2022/09/26 10:49:50;;;;;;;8.40;4.97;;;12.80;83.60;;;;;;4995061;28;20559;-89
2022/09/26 10:52:29;;;;;;;7.20;5.37;;;12.90;83.60;;;;;;4994908;28;20620;-87
2022/09/26 10:55:38;;;;;;;8.37;5.33;;;12.90;82.80;;;;;;4994683;28;20170;-88
2022/09/26 10:58:07;;;;;;;6.70;5.73;;;12.90;82.80;;;;;;4992944;28;20622;-88
2022/09/26 11:00:36;;;;;;;7.30;4.27;;;12.80;83.00;;;;;;4993273;28;20699;-88
2022/09/26 11:03:06;;;;;;;8.80;5.70;;;12.80;83.00;;;;;;4994451;28;20702;-87
2022/09/26 11:05:55;;;;;;;5.20;4.40;;;12.80;83.00;;;;;;4995150;28;20520;-87
2022/09/26 11:08:28;;;;;;;4.73;4.10;;;12.70;81.40;;;;;;4995006;28;20161;-88
2022/09/26 11:10:59;;;;;;;11.60;4.60;;;12.80;81.80;;;;;;4994706;28;20158;-87
2022/09/26 11:13:37;;;;;;;7.00;4.90;;;12.70;81.90;;;;;;4994246;28;20598;-89
2022/09/26 11:16:09;;;;;;;6.97;4.73;;;12.60;82.80;;;;;;4994763;28;20166;-88
2022/09/26 11:18:52;;;;;;;8.37;5.60;;;12.60;82.90;;;;;;4994211;28;20550;-87
2022/09/26 11:21:40;;;;;;;7.87;4.90;;;12.60;83.70;;;;;;4994470;28;20194;-87
2022/09/26 11:24:36;;;;;;;8.27;5.37;;;12.50;83.70;;;;;;4994535;28;20217;-87
2022/09/26 11:27:23;;;;;;;5.53;3.23;;;12.40;83.20;;;;;;4994374;28;20159;-87
2022/09/26 11:30:09;;;;;;;7.47;5.33;;;12.30;83.20;;;;;;4997080;28;20178;-88
2022/09/26 11:32:41;;;;;;;4.50;3.77;;;12.30;82.60;;;;;;4998133;28;20190;-87
2022/09/26 11:35:19;;;;;;;6.83;4.60;;;12.30;83.00;;;;;;4996016;28;20185;-88
2022/09/26 11:38:04;;;;;;;8.37;4.50;;;12.30;84.20;;;;;;4993349;28;20162;-88
2022/09/26 11:40:50;;;;;;;6.90;4.03;;;12.30;85.00;;;;;;4996395;28;20154;-87
2022/09/26 11:43:37;;;;;;;7.10;4.80;;;12.20;84.40;;;;;;4997614;28;20197;-86
2022/09/26 11:46:46;;;;;;;10.60;4.87;;;12.30;85.10;;;;;;4999617;28;20625;-87
2022/09/26 11:49:29;;;;;;;5.60;3.70;;;12.30;84.90;;;;;;4995007;28;20150;-87
2022/09/26 11:52:06;;;;;;;10.63;4.47;;;12.40;85.10;;;;;;4994170;28;20236;-88
2022/09/26 11:54:42;;;;;;;5.70;4.47;;;12.50;85.00;;;;;;4994433;28;20162;-87
2022/09/26 11:57:44;;;;;;;5.23;3.40;;;12.50;84.90;;;;;;4994781;28;20275;-88
2022/09/26 12:00:28;;;;;;;6.20;4.50;;;12.30;84.30;;;;;;4994798;28;20158;-87
2022/09/26 12:03:14;;;;;;;8.73;5.67;;;12.40;85.20;;;;;;4992994;28;20253;-89
2022/09/26 12:06:13;;;;;;;8.97;4.83;;;12.40;85.40;;;;;;4994841;28;20178;-90
2022/09/26 12:09:09;;;;;;;6.27;5.17;;;12.20;84.70;;;;;;4998115;28;20194;-89
2022/09/26 12:11:41;;;;;;;13.27;5.80;;;12.20;85.50;;;;;;4997769;28;20220;-89
2022/09/26 12:14:25;;;;;;;9.07;5.53;;;12.10;85.70;;;;;;4997631;28;20575;-87
2022/09/26 12:16:57;;;;;;;7.83;5.70;;;12.20;86.60;;;;;;4997884;28;20204;-89
2022/09/26 12:19:59;;;;;;;9.57;4.60;;;12.10;87.10;;;;;;4996434;28;20660;-89
2022/09/26 12:22:34;;;;;;;10.00;5.20;;;12.00;87.40;;;;;;4996519;28;20202;-89
2022/09/26 12:25:28;;;;;;;6.23;5.03;;;11.90;87.40;;;;;;4998153;28;20631;-89
2022/09/26 12:28:24;;;;;;;9.40;6.00;;;11.80;88.10;;;;;;4998154;28;20618;-89
2022/09/26 12:31:10;;;;;;;10.03;5.80;;;11.80;88.10;;;;;;4998160;28;20159;-89
2022/09/26 12:33:42;;;;;;;8.80;6.50;;;11.80;88.20;;;;;;4996181;28;20189;-87
2022/09/26 12:36:39;;;;;;;7.73;6.03;;;12.00;88.20;;;;;;4997326;28;20166;-88
2022/09/26 12:39:35;;;;;;;6.57;4.80;;;12.00;87.80;;;;;;4996784;28;20170;-87
2022/09/26 12:42:28;;;;;;;9.73;6.00;;;12.00;87.60;;;;;;4997985;28;20198;-87
2022/09/26 12:45:28;;;;;;;6.93;4.30;;;12.10;87.50;;;;;;4997650;28;20170;-87
2022/09/26 12:48:01;;;;;;;6.10;4.40;;;12.10;86.80;;;;;;4998063;28;20648;-88
2022/09/26 12:50:50;;;;;;;8.57;4.70;;;12.00;86.80;;;;;;4998323;28;20707;-88
2022/09/26 12:53:30;;;;;;;10.27;5.20;;;12.20;87.10;;;;;;4998130;28;20196;-88
2022/09/26 12:56:18;;;;;;;4.93;4.43;;;12.20;87.00;;;;;;4999805;28;20155;-88
2022/09/26 12:59:22;;;;;;;4.00;3.30;;;12.20;86.90;;;;;;4998697;28;20158;-88
2022/09/26 13:02:21;;;;;;;5.07;4.20;;;12.20;86.70;;;;;;4999029;28;20201;-87
2022/09/26 13:05:03;;;;;;;5.60;4.03;;;12.10;86.90;;;;;;4998410;28;20170;-87
2022/09/26 13:08:01;;;;;;;5.03;4.30;;;12.20;87.30;;;;;;5000664;28;20161;-87
2022/09/26 13:10:37;;;;;;;9.83;4.50;;;12.10;87.00;;;;;;4997576;28;20170;-87
2022/09/26 13:13:32;;;;;;;9.23;5.50;;;12.20;87.00;;;;;;4998981;28;20204;-87
2022/09/26 13:16:24;;;;;;;5.60;3.97;;;12.20;87.10;;;;;;4998871;28;20162;-87
2022/09/26 13:19:18;;;;;;;7.13;3.90;;;12.10;86.90;;;;;;4998271;28;20177;-86
2022/09/26 13:21:50;;;;;;;7.33;5.03;;;12.10;87.10;;;;;;4998600;28;20569;-87
2022/09/26 13:24:46;;;;;;;6.67;4.80;;;12.10;87.30;;;;;;4998187;28;20189;-87
2022/09/26 13:27:21;;;;;;;6.63;4.07;;;12.00;87.30;;;;;;4998263;28;20260;-88
2022/09/26 13:29:54;;;;;;;5.07;3.97;;;12.00;87.60;;;;;;4998380;28;20162;-88
2022/09/26 13:32:35;;;;;;;8.27;5.10;;;12.00;88.00;;;;;;4998528;28;20547;-87
2022/09/26 13:35:18;;;;;;;10.07;4.77;;;11.90;88.10;;;;;;4998168;28;20161;-87